createdAt,value
2023-03-28T00:00:55.156Z,77.26
2023-03-28T00:03:27.593Z,77.07
2023-03-28T00:06:01.900Z,77.31
2023-03-28T00:08:34.025Z,77.11
2023-03-28T00:11:07.929Z,76.98
2023-03-28T00:13:39.465Z,77.10
2023-03-28T00:16:12.919Z,77.02
2023-03-28T00:18:44.602Z,77.17
2023-03-28T00:21:23.640Z,77.12
2023-03-28T00:23:56.576Z,77.19
2023-03-28T00:26:28.895Z,77.00
2023-03-28T00:29:01.500Z,77.23
2023-03-28T00:31:35.163Z,77.08
2023-03-28T00:34:07.110Z,77.11
2023-03-28T00:36:39.155Z,77.12
2023-03-28T00:39:11.387Z,77.13
2023-03-28T00:41:44.793Z,77.24
2023-03-28T00:44:45.992Z,77.22
2023-03-28T00:47:26.680Z,77.67
2023-03-28T00:50:03.126Z,77.44
2023-03-28T00:52:40.018Z,77.66
2023-03-28T00:55:16.713Z,77.59
2023-03-28T00:57:50.236Z,77.42
2023-03-28T01:00:21.949Z,77.74
2023-03-28T01:02:56.029Z,77.80
2023-03-28T01:05:29.605Z,77.91
2023-03-28T01:08:04.931Z,78.13
2023-03-28T01:10:36.952Z,78.28
2023-03-28T01:13:09.014Z,78.25
2023-03-28T01:15:40.692Z,78.34
2023-03-28T01:18:12.552Z,78.29
2023-03-28T01:21:09.447Z,78.37
2023-03-28T01:24:17.578Z,78.77
2023-03-28T01:26:53.945Z,78.95
2023-03-28T01:30:01.136Z,78.79
2023-03-28T01:32:52.613Z,78.86
2023-03-28T01:35:49.620Z,79.06
2023-03-28T01:38:27.819Z,79.02
2023-03-28T01:41:06.351Z,79.19
2023-03-28T01:43:45.026Z,79.22
2023-03-28T01:46:21.789Z,79.60
2023-03-28T01:49:01.092Z,79.76
2023-03-28T01:51:43.080Z,79.84
2023-03-28T01:54:20.700Z,80.13
2023-03-28T01:56:58.631Z,80.41
2023-03-28T01:59:31.125Z,80.56
2023-03-28T02:02:08.849Z,80.79
2023-03-28T02:04:42.848Z,81.20
2023-03-28T02:07:14.503Z,81.65
2023-03-28T02:09:48.658Z,82.16
2023-03-28T02:12:25.147Z,82.62
2023-03-28T02:14:59.340Z,82.58
2023-03-28T02:17:31.350Z,82.52
2023-03-28T02:20:08.986Z,82.50
2023-03-28T02:22:45.407Z,82.54
2023-03-28T02:25:16.949Z,82.40
2023-03-28T02:27:47.298Z,82.59
2023-03-28T02:30:19.701Z,82.51
2023-03-28T02:32:51.717Z,82.80
2023-03-28T02:35:28.851Z,82.76
2023-03-28T02:38:08.544Z,82.68
2023-03-28T02:40:47.933Z,82.85
2023-03-28T02:43:31.990Z,83.48
2023-03-28T02:46:19.569Z,83.57
2023-03-28T02:49:06.070Z,84.10
2023-03-28T02:51:46.553Z,84.80
2023-03-28T02:54:29.576Z,84.94
2023-03-28T02:57:08.402Z,86.43
2023-03-28T02:59:43.997Z,87.06
2023-03-28T03:02:20.587Z,87.34
2023-03-28T03:04:52.561Z,87.11
2023-03-28T03:07:23.604Z,87.26
2023-03-28T03:09:54.839Z,87.49
2023-03-28T03:12:26.030Z,87.41
2023-03-28T03:15:01.238Z,86.68
2023-03-28T03:17:34.563Z,86.19
2023-03-28T03:20:06.937Z,85.43
2023-03-28T03:22:37.961Z,84.02
2023-03-28T03:25:14.310Z,83.52
2023-03-28T03:27:46.351Z,83.68
2023-03-28T03:30:17.564Z,83.68
2023-03-28T03:32:48.894Z,84.24
2023-03-28T03:35:20.948Z,84.12
2023-03-28T03:37:52.262Z,83.44
2023-03-28T03:40:23.578Z,83.18
2023-03-28T03:42:53.478Z,81.69
2023-03-28T03:45:24.771Z,81.01
2023-03-28T03:47:55.819Z,80.72
2023-03-28T03:50:26.860Z,80.45
2023-03-28T03:52:58.548Z,79.94
2023-03-28T03:55:29.985Z,80.09
2023-03-28T03:58:01.510Z,79.62
2023-03-28T04:00:32.944Z,79.46
2023-03-28T04:03:04.501Z,79.07
2023-03-28T04:05:35.749Z,79.16
2023-03-28T04:08:07.391Z,78.95
2023-03-28T04:10:38.701Z,78.47
2023-03-28T04:13:10.384Z,78.39
2023-03-28T04:15:41.601Z,78.43
2023-03-28T04:18:12.578Z,78.36
2023-03-28T04:20:44.165Z,78.02
2023-03-28T04:23:13.680Z,77.92
2023-03-28T04:25:44.750Z,77.84
2023-03-28T04:28:16.322Z,78.00
2023-03-28T04:30:47.382Z,77.61
2023-03-28T04:33:18.438Z,77.62
2023-03-28T04:35:51.442Z,77.72
2023-03-28T04:38:23.777Z,77.84
2023-03-28T04:40:58.040Z,77.95
2023-03-28T04:43:29.164Z,78.03
2023-03-28T04:46:01.061Z,77.97
2023-03-28T04:48:32.945Z,77.92
2023-03-28T04:51:04.470Z,77.91
2023-03-28T04:53:34.081Z,77.65
2023-03-28T04:56:05.948Z,77.20
2023-03-28T04:58:37.757Z,76.62
2023-03-28T05:01:10.631Z,76.01
2023-03-28T05:03:41.662Z,75.53
2023-03-28T05:06:12.877Z,75.51
2023-03-28T05:08:44.572Z,74.94
2023-03-28T05:11:15.582Z,74.31
2023-03-28T05:13:46.732Z,74.28
2023-03-28T05:16:18.514Z,74.20
2023-03-28T05:18:49.726Z,73.45
2023-03-28T05:21:20.572Z,72.30
2023-03-28T05:23:52.542Z,71.91
2023-03-28T05:26:23.608Z,71.36
2023-03-28T05:28:54.811Z,71.79
2023-03-28T05:31:28.485Z,71.00
2023-03-28T05:33:59.624Z,70.94
2023-03-28T05:36:30.863Z,70.68
2023-03-28T05:39:00.569Z,70.55
2023-03-28T05:41:31.706Z,70.77
2023-03-28T05:44:04.351Z,71.00
2023-03-28T05:46:35.522Z,70.62
2023-03-28T05:49:06.619Z,71.06
2023-03-28T05:51:37.524Z,70.13
2023-03-28T05:54:08.623Z,70.03
2023-03-28T05:56:39.817Z,69.91
2023-03-28T05:59:11.163Z,68.81
2023-03-28T06:01:43.207Z,69.05
2023-03-28T06:04:14.974Z,67.95
2023-03-28T06:06:48.712Z,67.38
2023-03-28T06:09:20.026Z,67.44
2023-03-28T06:11:51.239Z,67.72
2023-03-28T06:14:22.518Z,67.16
2023-03-28T06:16:53.563Z,67.32
2023-03-28T06:19:24.865Z,66.67
2023-03-28T06:21:56.018Z,66.41
2023-03-28T06:24:27.347Z,66.60
2023-03-28T06:26:57.066Z,65.80
2023-03-28T06:29:28.353Z,66.54
2023-03-28T06:31:59.788Z,66.18
2023-03-28T06:34:30.884Z,65.95
2023-03-28T06:37:02.086Z,66.91
2023-03-28T06:39:33.131Z,67.25
2023-03-28T06:42:04.276Z,67.82
2023-03-28T06:44:35.402Z,67.56
2023-03-28T06:47:06.552Z,68.06
2023-03-28T06:49:37.647Z,68.70
2023-03-28T06:52:09.356Z,69.61
2023-03-28T06:54:40.394Z,70.96
2023-03-28T06:57:12.012Z,72.16
2023-03-28T06:59:43.222Z,73.17
2023-03-28T07:02:13.033Z,75.29
2023-03-28T07:04:44.325Z,77.05
2023-03-28T07:07:15.437Z,78.47
2023-03-28T07:09:48.851Z,78.41
2023-03-28T07:12:20.156Z,78.85
2023-03-28T07:14:51.073Z,78.73
2023-03-28T07:17:22.445Z,78.14
2023-03-28T07:19:53.757Z,78.09
2023-03-28T07:22:24.762Z,77.44
2023-03-28T07:24:55.832Z,75.70
2023-03-28T07:27:27.189Z,75.30
2023-03-28T07:29:58.242Z,74.89
2023-03-28T07:32:35.745Z,74.14
2023-03-28T07:35:14.145Z,74.32
2023-03-28T07:37:45.638Z,73.79
2023-03-28T07:40:16.490Z,72.68
2023-03-28T07:42:49.146Z,72.77
2023-03-28T07:45:20.354Z,71.44
2023-03-28T07:47:51.547Z,70.52
2023-03-28T07:50:24.866Z,69.33
2023-03-28T07:52:57.830Z,66.67
2023-03-28T07:55:29.978Z,65.17
2023-03-28T07:58:01.531Z,65.83
2023-03-28T08:00:33.266Z,64.56
2023-03-28T08:03:04.335Z,64.04
2023-03-28T08:05:37.985Z,64.25
2023-03-28T08:08:09.938Z,62.12
2023-03-28T08:10:41.175Z,61.46
2023-03-28T08:13:12.144Z,61.58
2023-03-28T08:15:43.107Z,60.72
2023-03-28T08:18:17.775Z,60.94
2023-03-28T08:20:48.723Z,61.24
2023-03-28T08:23:20.037Z,62.65
2023-03-28T08:25:49.580Z,62.11
2023-03-28T08:28:22.279Z,62.83
2023-03-28T08:30:53.592Z,62.51
2023-03-28T08:33:24.689Z,63.27
2023-03-28T08:35:56.386Z,61.76
2023-03-28T08:38:27.580Z,61.82
2023-03-28T08:41:07.783Z,62.20
2023-03-28T08:43:55.901Z,61.59
2023-03-28T08:46:29.108Z,61.10
2023-03-28T08:49:12.199Z,61.36
2023-03-28T08:51:47.680Z,61.78
2023-03-28T08:54:21.921Z,60.77
2023-03-28T08:56:57.238Z,60.50
2023-03-28T08:59:39.632Z,60.35
2023-03-28T09:02:19.439Z,60.36
2023-03-28T09:04:51.561Z,59.85
2023-03-28T09:07:35.461Z,59.86
2023-03-28T09:10:16.875Z,60.23
2023-03-28T09:13:06.018Z,58.11
2023-03-28T09:15:59.361Z,57.70
2023-03-28T09:19:00.641Z,57.05
2023-03-28T09:21:39.230Z,55.74
2023-03-28T09:24:22.569Z,56.00
2023-03-28T09:26:59.620Z,55.54
2023-03-28T09:29:34.165Z,54.09
2023-03-28T09:32:16.970Z,54.07
2023-03-28T09:34:50.839Z,55.38
2023-03-28T09:37:30.907Z,57.98
2023-03-28T09:40:14.477Z,61.35
2023-03-28T09:42:55.271Z,63.51
2023-03-28T09:45:37.455Z,64.21
2023-03-28T09:48:20.751Z,65.31
2023-03-28T09:50:52.568Z,65.54
2023-03-28T09:53:31.071Z,65.59
2023-03-28T09:56:07.745Z,65.94
2023-03-28T09:58:52.890Z,65.82
2023-03-28T10:01:40.282Z,66.13
2023-03-28T10:04:15.367Z,64.97
2023-03-28T10:06:48.099Z,64.43
2023-03-28T10:09:22.064Z,63.43
2023-03-28T10:11:55.681Z,62.33
2023-03-28T10:14:35.386Z,62.64
2023-03-28T10:17:13.138Z,60.13
2023-03-28T10:19:46.842Z,59.50
2023-03-28T10:22:23.956Z,57.75
2023-03-28T10:24:55.834Z,54.23
2023-03-28T10:27:30.115Z,53.36
2023-03-28T10:30:16.344Z,51.37
2023-03-28T10:33:07.643Z,51.95
2023-03-28T10:35:41.770Z,51.09
2023-03-28T10:38:17.311Z,52.27
2023-03-28T10:40:59.534Z,58.11
2023-03-28T10:43:37.452Z,60.13
2023-03-28T10:46:15.637Z,59.46
2023-03-28T10:48:50.920Z,59.56
2023-03-28T10:51:24.795Z,60.69
2023-03-28T10:54:22.834Z,61.17
2023-03-28T10:56:58.564Z,61.91
2023-03-28T10:59:46.892Z,59.78
2023-03-28T11:02:46.207Z,59.02
2023-03-28T11:05:28.911Z,59.18
2023-03-28T11:08:12.180Z,58.75
2023-03-28T11:10:53.640Z,58.68
2023-03-28T11:13:32.417Z,59.57
2023-03-28T11:16:10.492Z,59.87
2023-03-28T11:18:57.198Z,60.73
2023-03-28T11:21:34.075Z,60.52
2023-03-28T11:24:21.981Z,58.66
2023-03-28T11:27:14.764Z,57.47
2023-03-28T11:29:50.878Z,57.76
2023-03-28T11:32:24.727Z,58.12
2023-03-28T11:35:07.694Z,56.84
2023-03-28T11:37:43.861Z,53.51
2023-03-28T11:40:24.046Z,55.09
2023-03-28T11:43:01.242Z,52.07
2023-03-28T11:45:50.416Z,51.26
2023-03-28T11:48:27.258Z,51.21
2023-03-28T11:51:09.411Z,51.83
2023-03-28T11:53:47.946Z,50.57
2023-03-28T11:56:29.223Z,50.10
2023-03-28T11:59:04.565Z,50.52
2023-03-28T12:01:41.700Z,50.91
2023-03-28T12:04:16.381Z,49.43
2023-03-28T12:07:02.546Z,49.76
2023-03-28T12:09:39.000Z,48.68
2023-03-28T12:12:14.471Z,48.73
2023-03-28T12:14:53.428Z,50.21
2023-03-28T12:17:29.272Z,51.62
2023-03-28T12:20:00.234Z,51.49
2023-03-28T12:22:42.010Z,52.01
2023-03-28T12:25:21.156Z,51.06
2023-03-28T12:28:01.580Z,49.36
2023-03-28T12:30:37.705Z,49.67
2023-03-28T12:33:20.296Z,49.94
2023-03-28T12:36:00.549Z,47.71
2023-03-28T12:38:40.045Z,48.38
2023-03-28T12:41:14.482Z,49.04
2023-03-28T12:43:52.010Z,50.39
2023-03-28T12:46:24.825Z,51.90
2023-03-28T12:49:01.788Z,52.58
2023-03-28T12:51:39.013Z,53.20
2023-03-28T12:54:24.749Z,53.55
2023-03-28T12:57:05.528Z,54.95
2023-03-28T12:59:57.999Z,53.88
2023-03-28T13:02:34.490Z,55.07
2023-03-28T13:05:16.378Z,54.24
2023-03-28T13:08:07.676Z,54.37
2023-03-28T13:10:46.596Z,53.93
2023-03-28T13:13:28.688Z,53.80
2023-03-28T13:16:08.875Z,54.20
2023-03-28T13:18:49.008Z,53.15
2023-03-28T13:21:43.990Z,52.76
2023-03-28T13:24:31.828Z,51.97
2023-03-28T13:27:06.737Z,49.37
2023-03-28T13:29:49.110Z,50.59
2023-03-28T13:32:23.457Z,51.25
2023-03-28T13:34:57.886Z,48.27
2023-03-28T13:37:39.448Z,48.31
2023-03-28T13:40:40.926Z,48.23
2023-03-28T13:43:27.395Z,47.60
2023-03-28T13:46:04.625Z,46.20
2023-03-28T13:48:39.783Z,45.82
2023-03-28T13:51:16.648Z,45.24
2023-03-28T13:53:49.788Z,45.36
2023-03-28T13:56:25.136Z,44.69
2023-03-28T13:58:59.168Z,44.51
2023-03-28T14:01:38.285Z,45.60
2023-03-28T14:04:20.596Z,45.43
2023-03-28T14:06:53.268Z,46.29
2023-03-28T14:09:33.601Z,45.39
2023-03-28T14:12:09.585Z,45.45
2023-03-28T14:14:43.675Z,46.92
2023-03-28T14:17:18.301Z,46.59
2023-03-28T14:19:52.689Z,46.88
2023-03-28T14:22:26.409Z,45.52
2023-03-28T14:25:01.912Z,45.50
2023-03-28T14:27:39.398Z,44.98
2023-03-28T14:30:20.890Z,46.22
2023-03-28T14:32:59.941Z,44.90
2023-03-28T14:35:32.669Z,41.56
2023-03-28T14:38:05.616Z,40.60
2023-03-28T14:40:39.135Z,39.46
2023-03-28T14:43:24.600Z,36.98
2023-03-28T14:45:56.956Z,37.26
2023-03-28T14:48:29.408Z,37.44
2023-03-28T14:51:04.145Z,37.23
2023-03-28T14:53:42.127Z,35.88
2023-03-28T14:56:17.529Z,35.93
2023-03-28T14:58:51.532Z,34.80
2023-03-28T15:01:23.987Z,34.30
2023-03-28T15:03:59.278Z,32.91
2023-03-28T15:06:30.722Z,34.00
2023-03-28T15:09:09.904Z,33.07
2023-03-28T15:11:44.695Z,33.76
2023-03-28T15:14:27.986Z,32.77
2023-03-28T15:17:00.606Z,33.26
2023-03-28T15:19:37.375Z,32.75
2023-03-28T15:22:15.009Z,33.40
2023-03-28T15:24:47.521Z,33.84
2023-03-28T15:27:25.638Z,33.81
2023-03-28T15:29:57.489Z,34.27
2023-03-28T15:32:29.970Z,33.86
2023-03-28T15:35:04.695Z,33.78
2023-03-28T15:37:46.160Z,34.24
2023-03-28T15:40:29.391Z,34.43
2023-03-28T15:43:02.143Z,35.54
2023-03-28T15:45:41.052Z,34.91
2023-03-28T15:48:20.070Z,35.83
2023-03-28T15:50:56.373Z,35.33
2023-03-28T15:53:30.494Z,35.20
2023-03-28T15:56:08.901Z,35.26
2023-03-28T15:58:45.040Z,35.90
2023-03-28T16:01:28.408Z,36.88
2023-03-28T16:04:25.592Z,36.07
2023-03-28T16:07:05.726Z,36.66
2023-03-28T16:09:43.189Z,35.82
2023-03-28T16:12:16.597Z,36.94
2023-03-28T16:14:51.318Z,37.65
2023-03-28T16:17:26.276Z,37.33
2023-03-28T16:19:57.886Z,37.85
2023-03-28T16:22:29.777Z,38.54
2023-03-28T16:25:01.300Z,37.79
2023-03-28T16:27:37.610Z,37.97
2023-03-28T16:30:19.305Z,37.82
2023-03-28T16:32:50.757Z,38.55
2023-03-28T16:35:22.790Z,38.36
2023-03-28T16:37:53.955Z,38.89
2023-03-28T16:40:23.716Z,38.10
2023-03-28T16:42:55.595Z,38.43
2023-03-28T16:45:26.617Z,36.95
2023-03-28T16:47:56.553Z,37.99
2023-03-28T16:50:26.276Z,38.02
2023-03-28T16:52:57.517Z,38.57
2023-03-28T16:55:28.698Z,38.81
2023-03-28T16:57:59.836Z,38.07
2023-03-28T17:00:31.858Z,37.99
2023-03-28T17:03:05.279Z,38.43
2023-03-28T17:05:38.832Z,38.68
2023-03-28T17:08:10.377Z,38.68
2023-03-28T17:10:43.896Z,39.90
2023-03-28T17:13:17.140Z,40.62
2023-03-28T17:15:48.038Z,40.64
2023-03-28T17:18:19.412Z,40.84
2023-03-28T17:21:01.936Z,41.85
2023-03-28T17:23:34.422Z,42.74
2023-03-28T17:26:07.280Z,43.71
2023-03-28T17:28:42.121Z,45.39
2023-03-28T17:31:16.829Z,45.96
2023-03-28T17:33:48.792Z,46.82
2023-03-28T17:36:22.601Z,48.49
2023-03-28T17:38:55.799Z,48.93
2023-03-28T17:41:28.907Z,49.46
2023-03-28T17:44:00.435Z,50.34
2023-03-28T17:46:31.747Z,51.72
2023-03-28T17:49:02.949Z,52.12
2023-03-28T17:51:32.590Z,54.01
2023-03-28T17:54:05.037Z,53.46
2023-03-28T17:56:36.938Z,54.05
2023-03-28T17:59:07.977Z,55.77
2023-03-28T18:01:39.737Z,55.67
2023-03-28T18:04:11.425Z,56.81
2023-03-28T18:06:43.834Z,57.35
2023-03-28T18:09:15.745Z,57.42
2023-03-28T18:11:47.738Z,57.41
2023-03-28T18:14:19.169Z,58.01
2023-03-28T18:16:51.110Z,58.75
2023-03-28T18:19:22.401Z,59.14
2023-03-28T18:21:53.683Z,59.67
2023-03-28T18:24:25.353Z,59.63
2023-03-28T18:26:56.562Z,60.29
2023-03-28T18:29:26.242Z,60.65
2023-03-28T18:31:57.750Z,60.91
2023-03-28T18:34:29.108Z,61.28
2023-03-28T18:37:00.485Z,61.52
2023-03-28T18:39:31.832Z,61.63
2023-03-28T18:42:04.308Z,62.03
2023-03-28T18:44:37.230Z,62.20
2023-03-28T18:47:10.860Z,62.66
2023-03-28T18:49:42.113Z,63.15
2023-03-28T18:52:11.741Z,63.29
2023-03-28T18:54:46.205Z,63.60
2023-03-28T18:57:17.796Z,64.01
2023-03-28T18:59:52.615Z,64.07
2023-03-28T19:02:24.325Z,64.19
2023-03-28T19:04:55.815Z,64.11
2023-03-28T19:07:27.971Z,64.32
2023-03-28T19:09:59.421Z,64.61
2023-03-28T19:12:30.530Z,64.96
2023-03-28T19:15:01.703Z,65.18
2023-03-28T19:17:34.460Z,65.55
2023-03-28T19:20:12.804Z,65.52
2023-03-28T19:22:44.419Z,65.56
2023-03-28T19:25:14.260Z,65.19
2023-03-28T19:27:45.431Z,65.40
2023-03-28T19:30:17.333Z,65.63
2023-03-28T19:32:48.793Z,65.86
2023-03-28T19:35:20.176Z,65.67
2023-03-28T19:37:51.394Z,65.81
2023-03-28T19:40:22.571Z,66.12
2023-03-28T19:42:53.759Z,66.35
2023-03-28T19:45:25.162Z,66.59
2023-03-28T19:47:57.266Z,66.82
2023-03-28T19:50:28.520Z,66.89
2023-03-28T19:52:59.814Z,67.10
2023-03-28T19:55:31.051Z,67.16
2023-03-28T19:58:04.969Z,67.15
2023-03-28T20:00:36.203Z,66.96
2023-03-28T20:03:07.381Z,67.15
2023-03-28T20:05:41.152Z,67.16
2023-03-28T20:08:12.187Z,67.36
2023-03-28T20:10:44.717Z,67.59
2023-03-28T20:13:16.477Z,67.70
2023-03-28T20:15:48.603Z,68.01
2023-03-28T20:18:20.998Z,68.05
2023-03-28T20:20:56.528Z,68.43
2023-03-28T20:23:29.554Z,68.60
2023-03-28T20:26:01.789Z,68.68
2023-03-28T20:28:33.930Z,68.78
2023-03-28T20:31:05.371Z,68.71
2023-03-28T20:33:36.202Z,68.71
2023-03-28T20:36:08.278Z,68.86
2023-03-28T20:38:39.522Z,68.94
2023-03-28T20:41:14.167Z,69.16
2023-03-28T20:43:47.863Z,69.27
2023-03-28T20:46:20.256Z,69.39
2023-03-28T20:48:54.627Z,69.52
2023-03-28T20:51:29.275Z,69.82
2023-03-28T20:54:01.761Z,70.00
2023-03-28T20:56:34.074Z,70.15
2023-03-28T20:59:06.035Z,70.12
2023-03-28T21:01:39.575Z,70.12
2023-03-28T21:04:11.019Z,70.26
2023-03-28T21:06:43.571Z,70.20
2023-03-28T21:09:18.197Z,70.36
2023-03-28T21:11:49.775Z,70.49
2023-03-28T21:14:21.150Z,70.68
2023-03-28T21:16:54.434Z,70.91
2023-03-28T21:19:25.781Z,70.96
2023-03-28T21:21:57.187Z,71.02
2023-03-28T21:24:28.954Z,70.99
2023-03-28T21:27:00.147Z,71.15
2023-03-28T21:29:31.542Z,71.26
2023-03-28T21:32:02.790Z,71.36
2023-03-28T21:34:34.138Z,71.40
2023-03-28T21:37:06.028Z,71.52
2023-03-28T21:39:37.246Z,71.61
2023-03-28T21:42:08.704Z,71.78
2023-03-28T21:44:39.171Z,72.01
2023-03-28T21:47:10.468Z,72.27
2023-03-28T21:49:43.458Z,72.17
2023-03-28T21:52:14.909Z,72.36
2023-03-28T21:54:46.416Z,72.44
2023-03-28T21:57:16.437Z,72.52
2023-03-28T21:59:47.917Z,72.54
2023-03-28T22:02:19.333Z,72.68
2023-03-28T22:04:50.506Z,72.78
2023-03-28T22:07:21.923Z,72.89
2023-03-28T22:09:51.555Z,72.91
2023-03-28T22:12:22.860Z,73.06
2023-03-28T22:14:54.126Z,73.15
2023-03-28T22:17:25.937Z,73.09
2023-03-28T22:19:57.236Z,73.13
2023-03-28T22:22:29.892Z,73.17
2023-03-28T22:25:01.052Z,73.11
2023-03-28T22:27:31.057Z,73.22
2023-03-28T22:32:45.999Z,73.69
2023-03-28T22:35:17.425Z,74.04
2023-03-28T22:37:48.544Z,74.09
2023-03-28T22:40:20.283Z,74.02
2023-03-28T22:42:54.176Z,73.87
2023-03-28T22:45:27.158Z,73.84
2023-03-28T22:48:00.419Z,74.08
2023-03-28T22:50:33.855Z,73.87
2023-03-28T22:53:05.258Z,73.86
2023-03-28T22:55:38.402Z,73.84
2023-03-28T22:58:09.547Z,73.92
2023-03-28T23:00:40.733Z,74.08
2023-03-28T23:03:12.292Z,74.44
2023-03-28T23:05:43.839Z,74.63
2023-03-28T23:08:15.398Z,74.65
2023-03-28T23:10:44.836Z,74.64
2023-03-28T23:13:16.453Z,74.84
2023-03-28T23:15:48.325Z,74.76
2023-03-28T23:18:19.859Z,74.79
2023-03-28T23:20:53.042Z,74.76
2023-03-28T23:23:24.520Z,74.78
2023-03-28T23:25:55.598Z,74.68
2023-03-28T23:28:26.900Z,74.95
2023-03-28T23:30:58.047Z,74.86
2023-03-28T23:33:29.133Z,74.94
2023-03-28T23:36:02.651Z,75.09
2023-03-28T23:38:34.407Z,75.43
2023-03-28T23:41:06.630Z,75.33
2023-03-28T23:43:38.229Z,75.37
2023-03-28T23:46:09.942Z,75.32
2023-03-28T23:48:40.940Z,75.45
2023-03-28T23:51:11.997Z,75.30
2023-03-28T23:53:43.257Z,75.39
2023-03-28T23:56:14.228Z,75.41
2023-03-28T23:58:45.465Z,75.58
